createdAt,value
2019-02-15T00:00:46.066Z,23.23
2019-02-15T00:03:15.317Z,22.90
2019-02-15T00:05:44.181Z,21.57
2019-02-15T00:08:12.980Z,21.87
2019-02-15T00:10:41.864Z,21.00
2019-02-15T00:13:13.527Z,21.13
2019-02-15T00:15:41.627Z,22.50
2019-02-15T00:18:30.345Z,21.00
2019-02-15T00:21:18.312Z,22.07
2019-02-15T00:23:47.194Z,25.43
2019-02-15T00:26:16.734Z,23.73
2019-02-15T00:28:45.728Z,24.53
2019-02-15T00:31:17.679Z,24.30
2019-02-15T00:33:46.670Z,23.57
2019-02-15T00:36:15.473Z,23.73
2019-02-15T00:38:44.364Z,22.20
2019-02-15T00:41:13.153Z,20.13
2019-02-15T00:43:42.179Z,21.80
2019-02-15T00:46:30.184Z,21.83
2019-02-15T00:49:00.109Z,23.30
2019-02-15T00:51:45.277Z,22.73
2019-02-15T00:54:42.511Z,24.07
2019-02-15T00:57:30.527Z,23.67
2019-02-15T01:00:23.017Z,24.03
2019-02-15T01:03:03.006Z,21.73
2019-02-15T01:05:42.935Z,21.10
2019-02-15T01:08:25.140Z,21.82
2019-02-15T01:11:19.268Z,21.77
2019-02-15T01:13:48.238Z,21.27
2019-02-15T01:16:17.336Z,21.00
2019-02-15T01:18:46.249Z,20.73
2019-02-15T01:21:15.107Z,21.73
2019-02-15T01:23:44.006Z,22.73
2019-02-15T01:26:26.404Z,21.37
2019-02-15T01:29:14.389Z,21.73
2019-02-15T01:31:58.449Z,19.93
2019-02-15T01:34:45.178Z,21.80
2019-02-15T01:37:19.291Z,19.77
2019-02-15T01:40:15.411Z,18.33
2019-02-15T01:42:57.127Z,19.13
2019-02-15T01:45:30.710Z,20.93
2019-02-15T01:47:59.600Z,20.70
2019-02-15T01:50:28.472Z,21.70
2019-02-15T01:52:57.374Z,20.50
2019-02-15T01:55:26.177Z,22.27
2019-02-15T01:57:55.154Z,21.50
2019-02-15T02:00:26.657Z,21.27
2019-02-15T02:02:55.571Z,21.23
2019-02-15T02:05:24.931Z,22.27
2019-02-15T02:07:53.993Z,20.77
2019-02-15T02:10:22.856Z,19.83
2019-02-15T02:12:51.747Z,21.40
2019-02-15T02:15:20.752Z,20.97
2019-02-15T02:17:49.720Z,20.90
2019-02-15T02:20:18.701Z,21.43
2019-02-15T02:22:47.589Z,21.82
2019-02-15T02:25:16.412Z,22.63
2019-02-15T02:27:45.384Z,20.60
2019-02-15T02:30:14.859Z,20.13
2019-02-15T02:32:43.691Z,20.70
2019-02-15T02:35:12.661Z,19.80
2019-02-15T02:37:41.710Z,21.20
2019-02-15T02:40:10.687Z,19.48
2019-02-15T02:42:39.711Z,19.02
2019-02-15T02:45:08.725Z,20.57
2019-02-15T02:47:37.580Z,19.50
2019-02-15T02:50:06.634Z,19.73
2019-02-15T02:52:35.551Z,19.27
2019-02-15T02:55:04.569Z,18.53
2019-02-15T02:57:33.589Z,20.50
2019-02-15T03:00:02.546Z,19.23
2019-02-15T03:02:31.460Z,20.53
2019-02-15T03:05:00.542Z,20.50
2019-02-15T03:07:29.362Z,21.73
2019-02-15T03:09:58.346Z,20.63
2019-02-15T03:12:27.269Z,20.57
2019-02-15T03:14:56.093Z,20.60
2019-02-15T03:17:24.973Z,22.77
2019-02-15T03:19:53.846Z,20.57
2019-02-15T03:22:22.792Z,21.23
2019-02-15T03:24:51.842Z,21.10
2019-02-15T03:27:20.876Z,21.57
2019-02-15T03:29:49.703Z,21.52
2019-02-15T03:32:18.557Z,19.87
2019-02-15T03:34:47.552Z,21.73
2019-02-15T03:37:38.473Z,21.93
2019-02-15T03:40:20.873Z,20.60
2019-02-15T03:42:49.755Z,20.57
2019-02-15T03:45:18.777Z,19.42
2019-02-15T03:47:47.627Z,18.73
2019-02-15T03:50:16.517Z,22.70
2019-02-15T03:52:45.514Z,20.17
2019-02-15T03:55:14.429Z,21.10
2019-02-15T03:57:43.445Z,19.67
2019-02-15T04:00:13.155Z,19.10
2019-02-15T04:02:42.219Z,20.53
2019-02-15T04:05:11.269Z,20.63
2019-02-15T04:07:40.113Z,20.57
2019-02-15T04:10:09.534Z,20.03
2019-02-15T04:12:38.509Z,20.57
2019-02-15T04:15:07.569Z,20.13
2019-02-15T04:17:36.477Z,21.63
2019-02-15T04:20:06.602Z,20.40
2019-02-15T04:22:35.499Z,21.97
2019-02-15T04:25:04.572Z,21.23
2019-02-15T04:27:33.644Z,22.90
2019-02-15T04:30:02.571Z,22.10
2019-02-15T04:32:31.455Z,23.00
2019-02-15T04:35:00.323Z,20.03
2019-02-15T04:37:29.211Z,20.23
2019-02-15T04:39:58.131Z,21.37
2019-02-15T04:42:27.030Z,20.93
2019-02-15T04:44:55.917Z,21.73
2019-02-15T04:47:24.794Z,20.27
2019-02-15T04:49:53.617Z,20.92
2019-02-15T04:52:22.468Z,20.60
2019-02-15T04:54:51.332Z,21.83
2019-02-15T04:57:20.240Z,22.47
2019-02-15T04:59:49.232Z,20.13
2019-02-15T05:02:18.152Z,20.97
2019-02-15T05:04:47.155Z,24.50
2019-02-15T05:07:16.139Z,22.97
2019-02-15T05:09:45.253Z,22.90
2019-02-15T05:12:14.306Z,22.73
2019-02-15T05:14:52.506Z,24.97
2019-02-15T05:17:13.955Z,23.23
2019-02-15T05:19:42.874Z,24.33
2019-02-15T05:22:11.736Z,25.00
2019-02-15T05:24:40.761Z,23.27
2019-02-15T05:27:09.579Z,23.60
2019-02-15T05:29:38.394Z,21.03
2019-02-15T05:32:07.291Z,21.67
2019-02-15T05:34:36.255Z,19.57
2019-02-15T05:37:05.245Z,19.40
2019-02-15T05:39:34.270Z,18.33
2019-02-15T05:42:03.076Z,17.07
2019-02-15T05:44:32.775Z,18.73
2019-02-15T05:47:01.662Z,17.57
2019-02-15T05:49:30.543Z,19.50
2019-02-15T05:51:59.429Z,22.20
2019-02-15T05:54:28.380Z,20.73
2019-02-15T05:56:57.189Z,20.70
2019-02-15T05:59:26.234Z,19.23
2019-02-15T06:01:55.157Z,19.43
2019-02-15T06:04:24.194Z,20.10
2019-02-15T06:06:53.103Z,19.60
2019-02-15T06:09:22.004Z,19.87
2019-02-15T06:11:50.945Z,18.67
2019-02-15T06:14:19.771Z,20.37
2019-02-15T06:16:48.869Z,20.37
2019-02-15T06:19:17.768Z,21.33
2019-02-15T06:21:46.817Z,20.07
2019-02-15T06:24:15.792Z,19.70
2019-02-15T06:26:44.758Z,19.13
2019-02-15T06:29:13.693Z,19.80
2019-02-15T06:31:42.642Z,21.57
2019-02-15T06:34:11.532Z,18.90
2019-02-15T06:36:40.540Z,18.57
2019-02-15T06:39:09.553Z,19.40
2019-02-15T06:41:38.492Z,18.63
2019-02-15T06:44:07.362Z,17.60
2019-02-15T06:46:36.394Z,21.33
2019-02-15T06:49:05.391Z,19.97
2019-02-15T06:51:35.593Z,19.47
2019-02-15T06:54:04.679Z,17.17
2019-02-15T06:56:33.733Z,17.13
2019-02-15T06:59:22.963Z,16.83
2019-02-15T07:01:57.470Z,16.70
2019-02-15T07:04:51.327Z,18.30
2019-02-15T07:07:20.240Z,15.57
2019-02-15T07:09:49.312Z,14.40
2019-02-15T07:12:18.381Z,13.93
2019-02-15T07:14:47.444Z,14.83
2019-02-15T07:17:16.367Z,15.10
2019-02-15T07:19:45.349Z,15.97
2019-02-15T07:22:14.287Z,16.90
2019-02-15T07:24:43.184Z,13.03
2019-02-15T07:27:11.995Z,13.93
2019-02-15T07:29:40.956Z,16.17
2019-02-15T07:32:09.761Z,15.70
2019-02-15T07:34:38.677Z,17.50
2019-02-15T07:37:07.575Z,14.53
2019-02-15T07:39:36.619Z,12.53
2019-02-15T07:42:05.623Z,13.63
2019-02-15T07:44:34.524Z,14.73
2019-02-15T07:47:03.454Z,13.67
2019-02-15T07:49:32.382Z,13.13
2019-02-15T07:52:01.276Z,11.47
2019-02-15T07:54:30.224Z,11.27
2019-02-15T07:56:59.253Z,11.17
2019-02-15T07:59:28.282Z,12.13
2019-02-15T08:02:01.786Z,11.30
2019-02-15T08:04:27.766Z,11.90
2019-02-15T08:06:56.694Z,12.30
2019-02-15T08:09:25.663Z,13.27
2019-02-15T08:11:54.491Z,13.00
2019-02-15T08:14:23.423Z,15.03
2019-02-15T08:16:52.397Z,13.67
2019-02-15T08:19:21.442Z,16.23
2019-02-15T08:21:50.312Z,16.03
2019-02-15T08:24:19.284Z,14.97
2019-02-15T08:26:48.228Z,15.07
2019-02-15T08:29:17.233Z,12.60
2019-02-15T08:31:46.526Z,13.37
2019-02-15T08:34:15.868Z,13.30
2019-02-15T08:36:44.956Z,13.87
2019-02-15T08:39:14.072Z,13.17
2019-02-15T08:42:00.560Z,13.87
2019-02-15T08:44:14.070Z,12.60
2019-02-15T08:46:42.978Z,13.43
2019-02-15T08:49:11.879Z,11.70
2019-02-15T08:51:40.910Z,13.80
2019-02-15T08:54:09.839Z,12.88
2019-02-15T08:56:38.824Z,13.00
2019-02-15T08:59:07.656Z,12.67
2019-02-15T09:01:36.490Z,12.63
2019-02-15T09:04:05.532Z,13.23
2019-02-15T09:06:34.507Z,13.50
2019-02-15T09:09:04.983Z,14.73
2019-02-15T09:11:33.996Z,13.10
2019-02-15T09:14:03.666Z,11.77
2019-02-15T09:16:32.600Z,12.67
2019-02-15T09:19:01.464Z,12.40
2019-02-15T09:21:30.611Z,14.03
2019-02-15T09:23:59.484Z,13.60
2019-02-15T09:26:28.380Z,13.27
2019-02-15T09:29:00.648Z,13.27
2019-02-15T09:31:29.521Z,12.90
2019-02-15T09:33:58.469Z,12.97
2019-02-15T09:36:27.425Z,11.80
2019-02-15T09:38:56.324Z,12.53
2019-02-15T09:41:25.312Z,12.97
2019-02-15T09:43:54.772Z,12.73
2019-02-15T09:46:23.769Z,12.83
2019-02-15T09:48:52.654Z,11.27
2019-02-15T09:51:22.127Z,13.07
2019-02-15T09:53:51.040Z,10.73
2019-02-15T09:56:20.127Z,10.43
2019-02-15T09:58:48.939Z,10.80
2019-02-15T10:01:17.834Z,10.17
2019-02-15T10:03:46.953Z,11.00
2019-02-15T10:06:15.940Z,10.03
2019-02-15T10:08:44.970Z,10.37
2019-02-15T10:11:14.035Z,10.47
2019-02-15T10:13:43.331Z,9.80
2019-02-15T10:16:15.576Z,9.20
2019-02-15T10:18:44.508Z,10.00
2019-02-15T10:21:13.430Z,10.60
2019-02-15T10:23:42.331Z,9.80
2019-02-15T10:26:11.313Z,10.13
2019-02-15T10:28:40.382Z,10.10
2019-02-15T10:31:09.380Z,10.43
2019-02-15T10:33:38.200Z,9.83
2019-02-15T10:36:07.047Z,10.70
2019-02-15T10:38:35.856Z,9.53
2019-02-15T10:41:05.104Z,9.90
2019-02-15T10:43:33.947Z,10.03
2019-02-15T10:46:02.855Z,10.43
2019-02-15T10:48:31.756Z,10.43
2019-02-15T10:51:00.671Z,29.90
2019-02-15T10:53:29.563Z,11.23
2019-02-15T10:55:58.386Z,41.20
2019-02-15T10:58:27.309Z,14.20
2019-02-15T11:00:56.283Z,9.77
2019-02-15T11:03:25.152Z,11.03
2019-02-15T11:05:54.113Z,11.47
2019-02-15T11:08:22.967Z,9.50
2019-02-15T11:10:52.031Z,9.90
2019-02-15T11:13:20.933Z,10.33
2019-02-15T11:15:49.865Z,10.60
2019-02-15T11:18:18.673Z,11.37
2019-02-15T11:20:47.593Z,11.20
2019-02-15T11:23:16.387Z,10.20
2019-02-15T11:25:45.443Z,9.93
2019-02-15T11:28:14.262Z,9.90
2019-02-15T11:30:43.249Z,10.27
2019-02-15T11:33:12.129Z,10.00
2019-02-15T11:35:41.148Z,11.00
2019-02-15T11:38:10.209Z,10.83
2019-02-15T11:40:39.204Z,11.10
2019-02-15T11:43:08.202Z,11.27
2019-02-15T11:45:37.134Z,10.90
2019-02-15T11:48:06.056Z,10.20
2019-02-15T11:50:34.971Z,11.30
2019-02-15T11:53:04.021Z,10.93
2019-02-15T11:55:32.993Z,11.35
2019-02-15T11:58:01.975Z,10.00
2019-02-15T12:00:34.321Z,10.58
2019-02-15T12:03:03.175Z,10.90
2019-02-15T12:05:32.216Z,11.23
2019-02-15T12:08:01.157Z,11.20
2019-02-15T12:10:30.053Z,11.27
2019-02-15T12:12:59.108Z,10.83
2019-02-15T12:15:28.026Z,11.20
2019-02-15T12:17:57.075Z,9.83
2019-02-15T12:20:29.269Z,10.87
2019-02-15T12:22:58.267Z,10.93
2019-02-15T12:25:27.164Z,11.50
2019-02-15T12:27:56.205Z,11.33
2019-02-15T12:30:25.259Z,11.40
2019-02-15T12:32:54.091Z,11.10
2019-02-15T12:35:23.029Z,10.60
2019-02-15T12:37:51.858Z,9.90
2019-02-15T12:40:20.883Z,9.60
2019-02-15T12:42:49.907Z,10.33
2019-02-15T12:45:18.865Z,8.93
2019-02-15T12:47:47.974Z,11.00
2019-02-15T12:50:17.015Z,10.80
2019-02-15T12:52:46.089Z,11.17
2019-02-15T12:55:14.996Z,10.43
2019-02-15T12:57:43.874Z,11.30
2019-02-15T13:00:13.960Z,10.67
2019-02-15T13:02:42.921Z,10.47
2019-02-15T13:05:12.511Z,10.17
2019-02-15T13:07:41.591Z,10.23
2019-02-15T13:10:12.860Z,11.13
2019-02-15T13:12:41.681Z,9.63
2019-02-15T13:15:11.138Z,11.37
2019-02-15T13:17:40.319Z,9.80
2019-02-15T13:20:09.413Z,9.30
2019-02-15T13:22:38.411Z,9.23
2019-02-15T13:25:07.471Z,9.10
2019-02-15T13:27:36.297Z,10.03
2019-02-15T13:30:06.005Z,9.80
2019-02-15T13:32:35.004Z,9.10
2019-02-15T13:35:04.295Z,9.53
2019-02-15T13:37:33.218Z,8.37
2019-02-15T13:40:02.214Z,8.60
2019-02-15T13:42:31.146Z,8.20
2019-02-15T13:45:00.320Z,7.33
2019-02-15T13:47:34.576Z,6.90
2019-02-15T13:50:00.409Z,7.00
2019-02-15T13:52:29.464Z,6.23
2019-02-15T13:54:58.387Z,7.10
2019-02-15T13:57:27.801Z,7.37
2019-02-15T13:59:56.848Z,7.83
2019-02-15T14:02:25.791Z,6.40
2019-02-15T14:04:54.770Z,6.67
2019-02-15T14:07:23.668Z,6.97
2019-02-15T14:09:52.673Z,7.30
2019-02-15T14:12:21.669Z,7.07
2019-02-15T14:14:50.562Z,6.70
2019-02-15T14:17:19.539Z,7.90
2019-02-15T14:19:48.547Z,7.63
2019-02-15T14:22:17.481Z,8.60
2019-02-15T14:24:46.672Z,8.47
2019-02-15T14:27:15.507Z,8.37
2019-02-15T14:29:44.449Z,8.73
2019-02-15T14:32:14.162Z,8.60
2019-02-15T14:34:43.281Z,9.20
2019-02-15T14:37:12.227Z,8.03
2019-02-15T14:39:41.117Z,7.13
2019-02-15T14:42:10.086Z,6.70
2019-02-15T14:44:39.119Z,7.00
2019-02-15T14:47:07.899Z,7.50
2019-02-15T14:49:36.995Z,8.13
2019-02-15T14:52:06.032Z,7.93
2019-02-15T14:54:35.043Z,9.13
2019-02-15T14:57:03.869Z,8.93
2019-02-15T14:59:32.898Z,8.47
2019-02-15T15:02:01.943Z,8.73
2019-02-15T15:04:30.829Z,9.17
2019-02-15T15:06:59.830Z,8.70
2019-02-15T15:09:29.006Z,8.20
2019-02-15T15:11:58.124Z,8.73
2019-02-15T15:14:27.035Z,9.23
2019-02-15T15:16:56.004Z,9.07
2019-02-15T15:19:25.015Z,9.20
2019-02-15T15:21:53.931Z,8.83
2019-02-15T15:24:22.713Z,9.10
2019-02-15T15:26:51.660Z,9.47
2019-02-15T15:29:20.468Z,8.93
2019-02-15T15:31:49.384Z,8.20
2019-02-15T15:34:18.379Z,8.17
2019-02-15T15:36:47.290Z,8.97
2019-02-15T15:39:16.255Z,7.93
2019-02-15T15:41:45.201Z,8.00
2019-02-15T15:44:14.224Z,7.93
2019-02-15T15:46:43.132Z,8.33
2019-02-15T15:49:12.183Z,8.30
2019-02-15T15:51:41.078Z,7.57
2019-02-15T15:54:10.118Z,8.20
2019-02-15T15:56:38.967Z,7.80
2019-02-15T15:59:07.982Z,7.90
2019-02-15T16:01:36.949Z,8.03
2019-02-15T16:04:05.931Z,8.17
2019-02-15T16:06:34.939Z,7.63
2019-02-15T16:09:05.351Z,8.13
2019-02-15T16:11:34.361Z,7.70
2019-02-15T16:14:03.279Z,8.33
2019-02-15T16:16:32.307Z,8.70
2019-02-15T16:19:01.301Z,7.30
2019-02-15T16:21:30.237Z,7.30
2019-02-15T16:24:18.362Z,6.90
2019-02-15T16:26:47.417Z,10.10
2019-02-15T16:29:16.326Z,8.47
2019-02-15T16:31:45.177Z,9.30
2019-02-15T16:34:14.183Z,10.83
2019-02-15T16:36:43.069Z,11.43
2019-02-15T16:39:12.179Z,11.90
2019-02-15T16:41:47.530Z,13.00
2019-02-15T16:44:16.957Z,11.20
2019-02-15T16:46:45.993Z,9.83
2019-02-15T16:49:14.965Z,12.90
2019-02-15T16:51:43.910Z,11.67
2019-02-15T16:54:12.781Z,10.37
2019-02-15T16:56:41.600Z,20.63
2019-02-15T16:59:10.669Z,10.77
2019-02-15T17:01:39.766Z,12.10
2019-02-15T17:04:08.575Z,11.13
2019-02-15T17:06:37.632Z,11.20
2019-02-15T17:09:15.244Z,14.03
2019-02-15T17:11:44.338Z,15.03
2019-02-15T17:14:13.383Z,21.13
2019-02-15T17:16:42.297Z,20.77
2019-02-15T17:19:11.226Z,18.73
2019-02-15T17:21:40.214Z,19.33
2019-02-15T17:24:09.234Z,13.67
2019-02-15T17:26:38.368Z,15.57
2019-02-15T17:29:07.153Z,14.70
2019-02-15T17:31:36.073Z,14.90
2019-02-15T17:34:05.055Z,13.57
2019-02-15T17:36:34.516Z,16.27
2019-02-15T17:39:03.936Z,11.37
2019-02-15T17:41:32.861Z,16.40
2019-02-15T17:44:01.765Z,10.10
2019-02-15T17:46:30.734Z,9.77
2019-02-15T17:49:01.055Z,11.13
2019-02-15T17:51:30.283Z,8.87
2019-02-15T17:53:59.210Z,9.23
2019-02-15T17:56:28.228Z,9.87
2019-02-15T17:58:57.236Z,8.97
2019-02-15T18:01:26.559Z,7.87
2019-02-15T18:03:55.534Z,7.37
2019-02-15T18:06:24.516Z,9.67
2019-02-15T18:08:53.349Z,8.43
2019-02-15T18:11:22.312Z,7.37
2019-02-15T18:13:51.124Z,7.80
2019-02-15T18:16:20.396Z,7.60
2019-02-15T18:18:49.337Z,7.27
2019-02-15T18:21:18.368Z,8.25
2019-02-15T18:23:47.385Z,7.20
2019-02-15T18:26:16.448Z,7.70
2019-02-15T18:28:45.423Z,8.07
2019-02-15T18:31:16.422Z,8.47
2019-02-15T18:33:45.113Z,9.10
2019-02-15T18:36:14.939Z,9.80
2019-02-15T18:38:44.265Z,11.35
2019-02-15T18:41:13.909Z,8.73
2019-02-15T18:43:42.940Z,10.77
2019-02-15T18:46:11.923Z,11.40
2019-02-15T18:48:41.745Z,10.40
2019-02-15T18:51:11.408Z,13.43
2019-02-15T18:53:40.303Z,16.43
2019-02-15T18:56:09.300Z,13.83
2019-02-15T18:58:38.092Z,13.93
2019-02-15T19:01:07.153Z,13.33
2019-02-15T19:03:36.195Z,14.73
2019-02-15T19:06:05.452Z,12.63
2019-02-15T19:08:34.385Z,12.43
2019-02-15T19:11:03.742Z,12.90
2019-02-15T19:13:32.696Z,12.00
2019-02-15T19:16:01.793Z,12.33
2019-02-15T19:18:30.774Z,12.07
2019-02-15T19:20:59.780Z,11.73
2019-02-15T19:23:28.809Z,22.70
2019-02-15T19:25:58.042Z,19.03
2019-02-15T19:28:26.956Z,20.80
2019-02-15T19:30:56.293Z,16.80
2019-02-15T19:33:25.397Z,19.45
2019-02-15T19:35:54.557Z,34.03
2019-02-15T19:38:23.453Z,17.73
2019-02-15T19:40:52.340Z,15.77
2019-02-15T19:43:21.332Z,15.13
2019-02-15T19:45:52.228Z,16.27
2019-02-15T19:48:21.244Z,15.87
2019-02-15T19:50:50.230Z,15.73
2019-02-15T19:53:19.216Z,14.70
2019-02-15T19:55:48.101Z,15.50
2019-02-15T19:58:17.043Z,23.73
2019-02-15T20:00:45.904Z,19.63
2019-02-15T20:03:14.899Z,15.97
2019-02-15T20:05:44.368Z,14.75
2019-02-15T20:08:13.370Z,14.23
2019-02-15T20:10:42.357Z,22.50
2019-02-15T20:13:11.375Z,21.77
2019-02-15T20:15:40.409Z,13.43
2019-02-15T20:18:09.353Z,13.40
2019-02-15T20:20:38.362Z,13.63
2019-02-15T20:23:07.358Z,14.57
2019-02-15T20:25:36.539Z,15.27
2019-02-15T20:28:13.663Z,20.00
2019-02-15T20:30:36.293Z,17.70
2019-02-15T20:33:05.364Z,23.37
2019-02-15T20:35:34.440Z,34.27
2019-02-15T20:38:03.363Z,21.43
2019-02-15T20:40:32.431Z,12.87
2019-02-15T20:43:01.335Z,14.00
2019-02-15T20:45:30.257Z,12.70
2019-02-15T20:47:59.173Z,14.13
2019-02-15T20:50:28.095Z,47.90
2019-02-15T20:52:56.998Z,22.23
2019-02-15T20:55:26.546Z,16.93
2019-02-15T20:57:55.916Z,13.27
2019-02-15T21:00:25.192Z,12.67
2019-02-15T21:02:54.116Z,13.43
2019-02-15T21:05:22.937Z,13.67
2019-02-15T21:07:52.209Z,14.20
2019-02-15T21:10:21.196Z,12.73
2019-02-15T21:12:50.273Z,14.93
2019-02-15T21:15:19.093Z,13.93
2019-02-15T21:17:48.112Z,12.73
2019-02-15T21:20:16.886Z,13.60
2019-02-15T21:22:45.866Z,12.50
2019-02-15T21:25:14.887Z,18.30
2019-02-15T21:27:43.703Z,11.77
2019-02-15T21:30:13.851Z,13.67
2019-02-15T21:32:42.831Z,12.13
2019-02-15T21:35:11.929Z,12.83
2019-02-15T21:37:41.000Z,25.87
2019-02-15T21:40:11.744Z,14.50
2019-02-15T21:42:40.603Z,14.43
2019-02-15T21:45:10.300Z,13.37
2019-02-15T21:47:39.333Z,13.77
2019-02-15T21:50:16.702Z,14.10
2019-02-15T21:52:44.103Z,16.60
2019-02-15T21:55:10.424Z,17.40
2019-02-15T21:57:39.505Z,17.23
2019-02-15T22:00:11.467Z,14.73
2019-02-15T22:02:40.569Z,15.27
2019-02-15T22:05:09.568Z,13.97
2019-02-15T22:07:38.404Z,14.83
2019-02-15T22:10:07.935Z,14.38
2019-02-15T22:12:36.898Z,14.70
2019-02-15T22:15:06.600Z,16.57
2019-02-15T22:17:35.565Z,15.00
2019-02-15T22:20:04.982Z,13.10
2019-02-15T22:22:40.101Z,15.03
2019-02-15T22:25:09.396Z,18.63
2019-02-15T22:27:38.326Z,15.40
2019-02-15T22:30:09.330Z,15.83
2019-02-15T22:32:38.438Z,20.60
2019-02-15T22:35:07.740Z,15.57
2019-02-15T22:37:36.681Z,39.37
2019-02-15T22:40:26.507Z,17.27
2019-02-15T22:42:55.406Z,16.17
2019-02-15T22:45:24.397Z,16.00
2019-02-15T22:47:53.480Z,14.80
2019-02-15T22:50:22.511Z,15.50
2019-02-15T22:52:52.799Z,14.13
2019-02-15T22:55:21.673Z,12.43
2019-02-15T22:57:50.679Z,14.73
2019-02-15T23:00:31.387Z,18.20
2019-02-15T23:03:02.685Z,21.62
2019-02-15T23:05:31.688Z,18.30
2019-02-15T23:08:00.686Z,14.07
2019-02-15T23:10:29.559Z,15.37
2019-02-15T23:13:00.216Z,14.27
2019-02-15T23:15:29.303Z,13.97
2019-02-15T23:17:58.550Z,12.70
2019-02-15T23:20:27.510Z,13.43
2019-02-15T23:22:56.486Z,14.90
2019-02-15T23:25:25.520Z,13.90
2019-02-15T23:27:54.454Z,13.87
2019-02-15T23:30:23.375Z,15.00
2019-02-15T23:32:52.240Z,25.53
2019-02-15T23:35:21.144Z,17.87
2019-02-15T23:37:50.049Z,15.00
2019-02-15T23:40:19.066Z,16.37
2019-02-15T23:42:48.075Z,15.30
2019-02-15T23:45:17.095Z,13.93
2019-02-15T23:47:45.910Z,19.50
2019-02-15T23:50:15.007Z,13.57
2019-02-15T23:52:43.912Z,14.03
2019-02-15T23:55:12.970Z,13.50
2019-02-15T23:57:41.897Z,14.40
